<?xml version="1.0" encoding="UTF-8" standalone="no" ?>
<gpx xmlns="http://www.topografix.com/GPX/1/1" xmlns:xsi="http://www.w3.org/2001/XMLSchema-instance" xsi:schemaLocation="http://www.topografix.com/GPX/1/1 http://www.topografix.com/GPX/1/1/gpx.xsd" version="1.1" creator="VisuGPX - https://www.visugpx.com">
  <metadata>
    <name>StVincentGraon_LacGraon_21km</name>
    <desc><![CDATA[gnerando idor:8031693]]></desc>
  </metadata>
  <trk>
    <name><![CDATA[LacGraon_20.7km-8031693]]></name>
    <extensions>
      <line xmlns="http://www.topografix.com/GPX/gpx_style/0/2">
        <color>0000FF</color>
        <width>4</width>
      </line>
    </extensions>
    <trkseg>
      <trkpt lat="46.51651" lon="-1.38762">
        <ele>45</ele>
        <time>2023-11-13T10:50:12Z</time>
      </trkpt>
      <trkpt lat="46.51691" lon="-1.38853">
        <ele>41</ele>
        <time>2023-11-13T10:51:51Z</time>
      </trkpt>
      <trkpt lat="46.51747" lon="-1.39041">
        <ele>34</ele>
        <time>2023-11-13T10:54:59Z</time>
      </trkpt>
      <trkpt lat="46.51756" lon="-1.39358">
        <ele>34</ele>
        <time>2023-11-13T10:59:51Z</time>
      </trkpt>
      <trkpt lat="46.51792" lon="-1.39565">
        <ele>37</ele>
        <time>2023-11-13T11:03:07Z</time>
      </trkpt>
      <trkpt lat="46.51729" lon="-1.40139">
        <ele>47</ele>
        <time>2023-11-13T11:12:00Z</time>
      </trkpt>
      <trkpt lat="46.51649" lon="-1.40196">
        <ele>51</ele>
        <time>2023-11-13T11:13:59Z</time>
      </trkpt>
      <trkpt lat="46.517" lon="-1.40281">
        <ele>49</ele>
        <time>2023-11-13T11:15:43Z</time>
      </trkpt>
      <trkpt lat="46.51723" lon="-1.40457">
        <ele>47</ele>
        <time>2023-11-13T11:18:27Z</time>
      </trkpt>
      <trkpt lat="46.51759" lon="-1.40711">
        <ele>50</ele>
        <time>2023-11-13T11:22:26Z</time>
      </trkpt>
      <trkpt lat="46.51694" lon="-1.41062">
        <ele>55</ele>
        <time>2023-11-13T11:27:59Z</time>
      </trkpt>
      <trkpt lat="46.51735" lon="-1.41264">
        <ele>56</ele>
        <time>2023-11-13T11:31:13Z</time>
      </trkpt>
      <trkpt lat="46.51845" lon="-1.41496">
        <ele>51</ele>
        <time>2023-11-13T11:35:31Z</time>
      </trkpt>
      <trkpt lat="46.51833" lon="-1.41698">
        <ele>51</ele>
        <time>2023-11-13T11:38:38Z</time>
      </trkpt>
      <trkpt lat="46.52169" lon="-1.41753">
        <ele>56</ele>
        <time>2023-11-13T11:46:09Z</time>
      </trkpt>
      <trkpt lat="46.52234" lon="-1.41612">
        <ele>51</ele>
        <time>2023-11-13T11:48:45Z</time>
      </trkpt>
      <trkpt lat="46.52329" lon="-1.41616">
        <ele>51</ele>
        <time>2023-11-13T11:50:52Z</time>
      </trkpt>
      <trkpt lat="46.52559" lon="-1.41534">
        <ele>59</ele>
        <time>2023-11-13T11:56:08Z</time>
      </trkpt>
      <trkpt lat="46.52518" lon="-1.41243">
        <ele>58</ele>
        <time>2023-11-13T12:00:40Z</time>
      </trkpt>
      <trkpt lat="46.5268" lon="-1.41247">
        <ele>51</ele>
        <time>2023-11-13T12:04:16Z</time>
      </trkpt>
      <trkpt lat="46.52795" lon="-1.41397">
        <ele>52</ele>
        <time>2023-11-13T12:07:43Z</time>
      </trkpt>
      <trkpt lat="46.52958" lon="-1.41436">
        <ele>47</ele>
        <time>2023-11-13T12:11:23Z</time>
      </trkpt>
      <trkpt lat="46.53067" lon="-1.41384">
        <ele>52</ele>
        <time>2023-11-13T12:13:56Z</time>
      </trkpt>
      <trkpt lat="46.5299" lon="-1.4123">
        <ele>51</ele>
        <time>2023-11-13T12:16:51Z</time>
      </trkpt>
      <trkpt lat="46.5299" lon="-1.41011">
        <ele>59</ele>
        <time>2023-11-13T12:20:12Z</time>
      </trkpt>
      <trkpt lat="46.52905" lon="-1.40796">
        <ele>57</ele>
        <time>2023-11-13T12:24:00Z</time>
      </trkpt>
      <trkpt lat="46.53043" lon="-1.40273">
        <ele>56</ele>
        <time>2023-11-13T12:32:34Z</time>
      </trkpt>
      <trkpt lat="46.52964" lon="-1.40123">
        <ele>63</ele>
        <time>2023-11-13T12:35:27Z</time>
      </trkpt>
      <trkpt lat="46.5281" lon="-1.39625">
        <ele>59</ele>
        <time>2023-11-13T12:43:49Z</time>
      </trkpt>
      <trkpt lat="46.52565" lon="-1.3926">
        <ele>55</ele>
        <time>2023-11-13T12:51:37Z</time>
      </trkpt>
      <trkpt lat="46.52388" lon="-1.39058">
        <ele>53</ele>
        <time>2023-11-13T12:56:37Z</time>
      </trkpt>
      <trkpt lat="46.52314" lon="-1.3896">
        <ele>52</ele>
        <time>2023-11-13T12:58:51Z</time>
      </trkpt>
      <trkpt lat="46.52158" lon="-1.38921">
        <ele>46</ele>
        <time>2023-11-13T13:02:22Z</time>
      </trkpt>
      <trkpt lat="46.52119" lon="-1.39033">
        <ele>40</ele>
        <time>2023-11-13T13:04:17Z</time>
      </trkpt>
      <trkpt lat="46.5201" lon="-1.38964">
        <ele>39</ele>
        <time>2023-11-13T13:06:56Z</time>
      </trkpt>
      <trkpt lat="46.51924" lon="-1.38972">
        <ele>41</ele>
        <time>2023-11-13T13:08:51Z</time>
      </trkpt>
      <trkpt lat="46.51859" lon="-1.3896">
        <ele>38</ele>
        <time>2023-11-13T13:10:18Z</time>
      </trkpt>
      <trkpt lat="46.51853" lon="-1.38771">
        <ele>37</ele>
        <time>2023-11-13T13:13:12Z</time>
      </trkpt>
      <trkpt lat="46.51969" lon="-1.38633">
        <ele>39</ele>
        <time>2023-11-13T13:16:32Z</time>
      </trkpt>
      <trkpt lat="46.51945" lon="-1.3847">
        <ele>36</ele>
        <time>2023-11-13T13:19:05Z</time>
      </trkpt>
      <trkpt lat="46.52022" lon="-1.38505">
        <ele>37</ele>
        <time>2023-11-13T13:20:53Z</time>
      </trkpt>
      <trkpt lat="46.52107" lon="-1.38488">
        <ele>38</ele>
        <time>2023-11-13T13:22:47Z</time>
      </trkpt>
      <trkpt lat="46.52161" lon="-1.38505">
        <ele>39</ele>
        <time>2023-11-13T13:24:01Z</time>
      </trkpt>
      <trkpt lat="46.52158" lon="-1.3844">
        <ele>37</ele>
        <time>2023-11-13T13:25:01Z</time>
      </trkpt>
      <trkpt lat="46.52208" lon="-1.38393">
        <ele>36</ele>
        <time>2023-11-13T13:26:20Z</time>
      </trkpt>
      <trkpt lat="46.52305" lon="-1.38509">
        <ele>38</ele>
        <time>2023-11-13T13:29:08Z</time>
      </trkpt>
      <trkpt lat="46.52385" lon="-1.38625">
        <ele>40</ele>
        <time>2023-11-13T13:31:39Z</time>
      </trkpt>
      <trkpt lat="46.52506" lon="-1.38599">
        <ele>36</ele>
        <time>2023-11-13T13:34:22Z</time>
      </trkpt>
      <trkpt lat="46.52562" lon="-1.38861">
        <ele>42</ele>
        <time>2023-11-13T13:38:34Z</time>
      </trkpt>
      <trkpt lat="46.52609" lon="-1.38977">
        <ele>45</ele>
        <time>2023-11-13T13:40:38Z</time>
      </trkpt>
      <trkpt lat="46.52603" lon="-1.38719">
        <ele>39</ele>
        <time>2023-11-13T13:44:35Z</time>
      </trkpt>
      <trkpt lat="46.52754" lon="-1.38638">
        <ele>40</ele>
        <time>2023-11-13T13:48:09Z</time>
      </trkpt>
      <trkpt lat="46.52887" lon="-1.38719">
        <ele>46</ele>
        <time>2023-11-13T13:51:22Z</time>
      </trkpt>
      <trkpt lat="46.52987" lon="-1.38591">
        <ele>36</ele>
        <time>2023-11-13T13:54:20Z</time>
      </trkpt>
      <trkpt lat="46.53097" lon="-1.38629">
        <ele>37</ele>
        <time>2023-11-13T13:56:50Z</time>
      </trkpt>
      <trkpt lat="46.53141" lon="-1.38749">
        <ele>40</ele>
        <time>2023-11-13T13:58:55Z</time>
      </trkpt>
      <trkpt lat="46.53161" lon="-1.38663">
        <ele>38</ele>
        <time>2023-11-13T14:00:19Z</time>
      </trkpt>
      <trkpt lat="46.53226" lon="-1.38681">
        <ele>37</ele>
        <time>2023-11-13T14:01:47Z</time>
      </trkpt>
      <trkpt lat="46.53268" lon="-1.38706">
        <ele>38</ele>
        <time>2023-11-13T14:02:48Z</time>
      </trkpt>
      <trkpt lat="46.53327" lon="-1.38702">
        <ele>36</ele>
        <time>2023-11-13T14:04:06Z</time>
      </trkpt>
      <trkpt lat="46.53409" lon="-1.38857">
        <ele>39</ele>
        <time>2023-11-13T14:07:06Z</time>
      </trkpt>
      <trkpt lat="46.53433" lon="-1.39037">
        <ele>42</ele>
        <time>2023-11-13T14:09:54Z</time>
      </trkpt>
      <trkpt lat="46.53466" lon="-1.39187">
        <ele>47</ele>
        <time>2023-11-13T14:12:19Z</time>
      </trkpt>
      <trkpt lat="46.53628" lon="-1.39221">
        <ele>52</ele>
        <time>2023-11-13T14:15:57Z</time>
      </trkpt>
      <trkpt lat="46.5374" lon="-1.39599">
        <ele>53</ele>
        <time>2023-11-13T14:22:15Z</time>
      </trkpt>
      <trkpt lat="46.54032" lon="-1.39457">
        <ele>50</ele>
        <time>2023-11-13T14:29:06Z</time>
      </trkpt>
      <trkpt lat="46.54091" lon="-1.39402">
        <ele>47</ele>
        <time>2023-11-13T14:30:39Z</time>
      </trkpt>
      <trkpt lat="46.54074" lon="-1.39191">
        <ele>42</ele>
        <time>2023-11-13T14:33:54Z</time>
      </trkpt>
      <trkpt lat="46.54109" lon="-1.39063">
        <ele>39</ele>
        <time>2023-11-13T14:36:01Z</time>
      </trkpt>
      <trkpt lat="46.54165" lon="-1.39007">
        <ele>40</ele>
        <time>2023-11-13T14:37:32Z</time>
      </trkpt>
      <trkpt lat="46.54023" lon="-1.3893">
        <ele>46</ele>
        <time>2023-11-13T14:40:54Z</time>
      </trkpt>
      <trkpt lat="46.53911" lon="-1.38951">
        <ele>41</ele>
        <time>2023-11-13T14:43:24Z</time>
      </trkpt>
      <trkpt lat="46.53823" lon="-1.38818">
        <ele>44</ele>
        <time>2023-11-13T14:46:14Z</time>
      </trkpt>
      <trkpt lat="46.53669" lon="-1.38848">
        <ele>37</ele>
        <time>2023-11-13T14:49:41Z</time>
      </trkpt>
      <trkpt lat="46.53572" lon="-1.38874">
        <ele>36</ele>
        <time>2023-11-13T14:51:53Z</time>
      </trkpt>
      <trkpt lat="46.53545" lon="-1.38827">
        <ele>36</ele>
        <time>2023-11-13T14:52:49Z</time>
      </trkpt>
      <trkpt lat="46.53406" lon="-1.38625">
        <ele>37</ele>
        <time>2023-11-13T14:57:11Z</time>
      </trkpt>
      <trkpt lat="46.53436" lon="-1.38505">
        <ele>40</ele>
        <time>2023-11-13T14:59:09Z</time>
      </trkpt>
      <trkpt lat="46.53377" lon="-1.38539">
        <ele>38</ele>
        <time>2023-11-13T15:00:33Z</time>
      </trkpt>
      <trkpt lat="46.53265" lon="-1.38513">
        <ele>40</ele>
        <time>2023-11-13T15:03:05Z</time>
      </trkpt>
      <trkpt lat="46.53209" lon="-1.38522">
        <ele>39</ele>
        <time>2023-11-13T15:04:20Z</time>
      </trkpt>
      <trkpt lat="46.5317" lon="-1.38479">
        <ele>41</ele>
        <time>2023-11-13T15:05:25Z</time>
      </trkpt>
      <trkpt lat="46.53114" lon="-1.38496">
        <ele>38</ele>
        <time>2023-11-13T15:06:41Z</time>
      </trkpt>
      <trkpt lat="46.5302" lon="-1.38436">
        <ele>38</ele>
        <time>2023-11-13T15:08:58Z</time>
      </trkpt>
      <trkpt lat="46.53079" lon="-1.38213">
        <ele>41</ele>
        <time>2023-11-13T15:12:38Z</time>
      </trkpt>
      <trkpt lat="46.52958" lon="-1.38346">
        <ele>43</ele>
        <time>2023-11-13T15:16:00Z</time>
      </trkpt>
      <trkpt lat="46.52955" lon="-1.3844">
        <ele>39</ele>
        <time>2023-11-13T15:17:27Z</time>
      </trkpt>
      <trkpt lat="46.52831" lon="-1.38526">
        <ele>40</ele>
        <time>2023-11-13T15:20:30Z</time>
      </trkpt>
      <trkpt lat="46.52807" lon="-1.38457">
        <ele>45</ele>
        <time>2023-11-13T15:21:41Z</time>
      </trkpt>
      <trkpt lat="46.52719" lon="-1.38492">
        <ele>41</ele>
        <time>2023-11-13T15:23:43Z</time>
      </trkpt>
      <trkpt lat="46.52612" lon="-1.38556">
        <ele>36</ele>
        <time>2023-11-13T15:26:17Z</time>
      </trkpt>
      <trkpt lat="46.52559" lon="-1.38453">
        <ele>40</ele>
        <time>2023-11-13T15:28:15Z</time>
      </trkpt>
      <trkpt lat="46.52497" lon="-1.38402">
        <ele>38</ele>
        <time>2023-11-13T15:29:50Z</time>
      </trkpt>
      <trkpt lat="46.52491" lon="-1.38226">
        <ele>44</ele>
        <time>2023-11-13T15:32:32Z</time>
      </trkpt>
      <trkpt lat="46.52403" lon="-1.3844">
        <ele>36</ele>
        <time>2023-11-13T15:36:21Z</time>
      </trkpt>
      <trkpt lat="46.5224" lon="-1.38234">
        <ele>37</ele>
        <time>2023-11-13T15:41:09Z</time>
      </trkpt>
      <trkpt lat="46.52302" lon="-1.38097">
        <ele>46</ele>
        <time>2023-11-13T15:43:40Z</time>
      </trkpt>
      <trkpt lat="46.52187" lon="-1.38153">
        <ele>42</ele>
        <time>2023-11-13T15:46:22Z</time>
      </trkpt>
      <trkpt lat="46.52022" lon="-1.38337">
        <ele>35</ele>
        <time>2023-11-13T15:50:59Z</time>
      </trkpt>
      <trkpt lat="46.51957" lon="-1.38239">
        <ele>40</ele>
        <time>2023-11-13T15:53:04Z</time>
      </trkpt>
      <trkpt lat="46.51756" lon="-1.38286">
        <ele>32</ele>
        <time>2023-11-13T15:57:36Z</time>
      </trkpt>
      <trkpt lat="46.51611" lon="-1.38401">
        <ele>22</ele>
        <time>2023-11-13T16:01:16Z</time>
      </trkpt>
      <trkpt lat="46.5154" lon="-1.38346">
        <ele>21</ele>
        <time>2023-11-13T16:03:04Z</time>
      </trkpt>
      <trkpt lat="46.51458" lon="-1.38324">
        <ele>27</ele>
        <time>2023-11-13T16:04:55Z</time>
      </trkpt>
      <trkpt lat="46.51472" lon="-1.38037">
        <ele>25</ele>
        <time>2023-11-13T16:09:19Z</time>
      </trkpt>
      <trkpt lat="46.51419" lon="-1.37947">
        <ele>30</ele>
        <time>2023-11-13T16:11:08Z</time>
      </trkpt>
      <trkpt lat="46.51086" lon="-1.3817">
        <ele>39</ele>
        <time>2023-11-13T16:19:17Z</time>
      </trkpt>
      <trkpt lat="46.50956" lon="-1.38187">
        <ele>44</ele>
        <time>2023-11-13T16:22:11Z</time>
      </trkpt>
      <trkpt lat="46.50796" lon="-1.38187">
        <ele>41</ele>
        <time>2023-11-13T16:25:45Z</time>
      </trkpt>
      <trkpt lat="46.50542" lon="-1.38221">
        <ele>42</ele>
        <time>2023-11-13T16:31:25Z</time>
      </trkpt>
      <trkpt lat="46.50188" lon="-1.38397">
        <ele>53</ele>
        <time>2023-11-13T16:39:45Z</time>
      </trkpt>
      <trkpt lat="46.50504" lon="-1.38852">
        <ele>53</ele>
        <time>2023-11-13T16:49:38Z</time>
      </trkpt>
      <trkpt lat="46.50518" lon="-1.3902">
        <ele>53</ele>
        <time>2023-11-13T16:52:14Z</time>
      </trkpt>
      <trkpt lat="46.50917" lon="-1.39732">
        <ele>54</ele>
        <time>2023-11-13T17:06:17Z</time>
      </trkpt>
      <trkpt lat="46.51068" lon="-1.39977">
        <ele>53</ele>
        <time>2023-11-13T17:11:19Z</time>
      </trkpt>
      <trkpt lat="46.51269" lon="-1.40032">
        <ele>54</ele>
        <time>2023-11-13T17:15:52Z</time>
      </trkpt>
      <trkpt lat="46.51511" lon="-1.4002">
        <ele>51</ele>
        <time>2023-11-13T17:21:15Z</time>
      </trkpt>
      <trkpt lat="46.51534" lon="-1.3962">
        <ele>41</ele>
        <time>2023-11-13T17:27:24Z</time>
      </trkpt>
      <trkpt lat="46.51635" lon="-1.39384">
        <ele>34</ele>
        <time>2023-11-13T17:31:39Z</time>
      </trkpt>
      <trkpt lat="46.51753" lon="-1.39329">
        <ele>32</ele>
        <time>2023-11-13T17:34:24Z</time>
      </trkpt>
      <trkpt lat="46.51774" lon="-1.39127">
        <ele>33</ele>
        <time>2023-11-13T17:37:32Z</time>
      </trkpt>
      <trkpt lat="46.51697" lon="-1.38908">
        <ele>38</ele>
        <time>2023-11-13T17:41:18Z</time>
      </trkpt>
      <trkpt lat="46.51641" lon="-1.38797">
        <ele>44</ele>
        <time>2023-11-13T17:43:24Z</time>
      </trkpt>
    </trkseg>
  </trk>
</gpx>